Список аэропортов
Фактическая погода:

24 октября, 12:00
Температура: +25°C (+25.0*)
Ветер: юго-западный 5 м/с
Давление: *759 мм
неб. 750 м
неб. облачность
990 м
Время (МСК)Темп. СВетерВлажностьДавлениеОблачностьОсадки
09:00+22Ю, 3 м/с69%1011 гПаоблачно
10:00+23Ю, 5 м/с61%1011 гПаоблачно
11:00+24Ю, 5 м/с57%1011 гПаоблачно
12:00+24Ю, 6 м/с56%1011 гПас прояснениями
13:00+24ЮЗ, 6 м/с55%1011 гПамалооблачно
14:00+24ЮЗ, 6 м/с54%1011 гПаясно
15:00+24Ю, 6 м/с52%1011 гПаясно
16:00+24Ю, 7 м/с57%1011 гПаясно
17:00+23Ю, 7 м/с61%1011 гПаясно
18:00+22ЮЗ, 6 м/с63%1011 гПас прояснениями
19:00+22ЮЗ, 5 м/с62%1011 гПаоблачно
20:00+22ЮЗ, 5 м/с64%1012 гПамалооблачно
21:00+22ЮЗ, 4 м/с67%1012 гПамалооблачно
22:00+22Ю, 4 м/с68%1012 гПас прояснениями
23:00+23Ю, 7 м/с64%1012 гПаоблачно
25 октября
00:00+22ЮЗ, 6 м/с73%1013 гПаоблачнодождь
01:00+21ЮЗ, 3 м/с86%1013 гПас прояснениямидождь
02:00+21ЮЗ, 3 м/с83%1013 гПамалооблачно
03:00+21ЮЗ, 4 м/с77%1013 гПамалооблачно
04:00+21ЮЗ, 4 м/с76%1013 гПамалооблачно
05:00+22Ю, 4 м/с76%1013 гПамалооблачно
06:00+21ЮЗ, 4 м/с79%1013 гПас прояснениямисл. дождь
07:00+21ЮЗ, 3 м/с84%1013 гПас прояснениямидождь
08:00+21ЮЗ, 3 м/с82%1014 гПамалооблачносл. дождь
09:00+22ЮЗ, 4 м/с78%1014 гПамалооблачносл. дождь
10:00+23ЮЗ, 4 м/с75%1015 гПамалооблачносл. дождь
11:00+24Ю, 4 м/с71%1015 гПаясно
12:00+24Ю, 6 м/с70%1015 гПас прояснениямисл. дождь
13:00+23ЮЗ, 6 м/с78%1015 гПаясно
14:00+24ЮЗ, 6 м/с76%1015 гПамалооблачно
15:00+24ЮЗ, 6 м/с77%1015 гПаясно
16:00+24ЮЗ, 6 м/с74%1015 гПаясно
17:00+24ЮЗ, 6 м/с70%1015 гПаясно
18:00+23ЮЗ, 6 м/с74%1016 гПаясно
19:00+22ЮЗ, 6 м/с80%1016 гПаясно
20:00+22ЮЗ, 5 м/с83%1017 гПаясно
21:00+21ЮЗ, 4 м/с85%1017 гПаясно
22:00+21ЮЗ, 4 м/с87%1018 гПаясно
23:00+21ЮЗ, 4 м/с88%1018 гПаясно
26 октября
00:00+20ЮЗ, 4 м/с89%1018 гПаясно
01:00+20ЮЗ, 3 м/с90%1018 гПаясно
02:00+20З, 3 м/с90%1017 гПаясно
03:00+19З, 3 м/с90%1017 гПаясно
04:00+19З, 3 м/с90%1017 гПаясно
05:00+19З, 3 м/с91%1017 гПаясно
06:00+18СЗ, 3 м/с89%1018 гПас прояснениями
07:00+19СЗ, 3 м/с83%1018 гПас прояснениями
08:00+19С, 3 м/с81%1018 гПаясно
09:00+21С, 3 м/с78%1019 гПаясно